KLM92W EKCH-EHAM
Flight info
| Callsign | KLM92W |
|---|---|
| Flight time | N/A |
| Altitude | 38000 |
| Route | LANGO M611 ALASA DCT WANZA N872 KUBAT T200 BLUFA |
| Aircraft | B739/M-SDE2E3FGHIRWXY/LB1 |
Departure
| Time | 2026-04-30 14:42 |
|---|---|
| Airport | Copenhagen Kastrup Airport (EKCH) |
Arrival
| Time | N/A |
|---|---|
| Airport | Amsterdam Airport Schiphol (EHAM) |
| Time | Latitude | Longitude | Altitude | Speed | Heading |
|---|---|---|---|---|---|
| 2026-04-30 14:21 | 55.62703 | 12.64166 | 23 ft | 0 kts | 33° |
| 2026-04-30 14:29 | 55.62674 | 12.64133 | 21 ft | 3 kts | 33° |
| 2026-04-30 14:29 | 55.62650 | 12.64085 | 27 ft | 4 kts | 95° |
| 2026-04-30 14:30 | 55.62632 | 12.64116 | 24 ft | 0 kts | 123° |
| 2026-04-30 14:32 | 55.62632 | 12.64117 | 25 ft | 1 kts | 123° |
| 2026-04-30 14:32 | 55.62622 | 12.64145 | 23 ft | 5 kts | 122° |
| 2026-04-30 14:32 | 55.62589 | 12.64204 | 23 ft | 8 kts | 160° |
| 2026-04-30 14:33 | 55.62534 | 12.64206 | 24 ft | 8 kts | 158° |
| 2026-04-30 14:33 | 55.62463 | 12.64357 | 23 ft | 8 kts | 129° |
| 2026-04-30 14:33 | 55.62428 | 12.64434 | 23 ft | 9 kts | 127° |
| 2026-04-30 14:34 | 55.62388 | 12.64538 | 23 ft | 12 kts | 123° |
| 2026-04-30 14:34 | 55.62340 | 12.64669 | 23 ft | 14 kts | 123° |
| 2026-04-30 14:34 | 55.62304 | 12.64763 | 25 ft | 8 kts | 129° |
| 2026-04-30 14:34 | 55.62251 | 12.64796 | 23 ft | 8 kts | 179° |
| 2026-04-30 14:35 | 55.62166 | 12.64718 | 26 ft | 9 kts | 213° |
| 2026-04-30 14:35 | 55.62068 | 12.64604 | 24 ft | 17 kts | 213° |
| 2026-04-30 14:35 | 55.61964 | 12.64507 | 23 ft | 17 kts | 190° |
| 2026-04-30 14:36 | 55.61850 | 12.64525 | 26 ft | 16 kts | 169° |
| 2026-04-30 14:36 | 55.61742 | 12.64561 | 23 ft | 14 kts | 169° |
| 2026-04-30 14:36 | 55.61649 | 12.64534 | 23 ft | 14 kts | 212° |
| 2026-04-30 14:36 | 55.61571 | 12.64443 | 24 ft | 13 kts | 213° |
| 2026-04-30 14:37 | 55.61496 | 12.64357 | 23 ft | 13 kts | 213° |
| 2026-04-30 14:37 | 55.61423 | 12.64273 | 23 ft | 12 kts | 213° |
| 2026-04-30 14:37 | 55.61351 | 12.64191 | 23 ft | 12 kts | 213° |
| 2026-04-30 14:37 | 55.61282 | 12.64112 | 23 ft | 12 kts | 213° |
| 2026-04-30 14:38 | 55.61214 | 12.64034 | 23 ft | 11 kts | 213° |
| 2026-04-30 14:38 | 55.61148 | 12.63958 | 23 ft | 11 kts | 213° |
| 2026-04-30 14:38 | 55.61084 | 12.63885 | 24 ft | 11 kts | 213° |
| 2026-04-30 14:38 | 55.61021 | 12.63813 | 23 ft | 11 kts | 213° |
| 2026-04-30 14:39 | 55.60959 | 12.63740 | 25 ft | 12 kts | 214° |
| 2026-04-30 14:39 | 55.60880 | 12.63652 | 23 ft | 15 kts | 211° |
| 2026-04-30 14:39 | 55.60783 | 12.63539 | 23 ft | 18 kts | 213° |
| 2026-04-30 14:40 | 55.60586 | 12.63283 | 24 ft | 17 kts | 221° |
| 2026-04-30 14:40 | 55.60500 | 12.63150 | 24 ft | 14 kts | 220° |
| 2026-04-30 14:40 | 55.60436 | 12.63119 | 23 ft | 10 kts | 161° |
| 2026-04-30 14:40 | 55.60385 | 12.63200 | 25 ft | 10 kts | 129° |
| 2026-04-30 14:41 | 55.60342 | 12.63299 | 26 ft | 10 kts | 110° |
| 2026-04-30 14:41 | 55.60376 | 12.63401 | 27 ft | 13 kts | 41° |
| 2026-04-30 14:41 | 55.60573 | 12.63707 | 23 ft | 70 kts | 41° |
| 2026-04-30 14:41 | 55.61095 | 12.64517 | 22 ft | 125 kts | 41° |
| 2026-04-30 14:42 | 55.61852 | 12.65689 | 87 ft | 159 kts | 40° |
| 2026-04-30 14:42 | 55.62674 | 12.66963 | 587 ft | 161 kts | 38° |
| 2026-04-30 14:42 | 55.63573 | 12.68329 | 1029 ft | 172 kts | 37° |
| 2026-04-30 14:42 | 55.64475 | 12.69745 | 1496 ft | 181 kts | 38° |
| 2026-04-30 14:43 | 55.65493 | 12.71343 | 1667 ft | 204 kts | 36° |
| 2026-04-30 14:43 | 55.66624 | 12.73013 | 1870 ft | 223 kts | 37° |
| 2026-04-30 14:43 | 55.67856 | 12.74839 | 2110 ft | 242 kts | 36° |
| 2026-04-30 14:43 | 55.69179 | 12.76812 | 2667 ft | 250 kts | 37° |
| 2026-04-30 14:44 | 55.70397 | 12.79062 | 3376 ft | 258 kts | 57° |
| 2026-04-30 14:44 | 55.70853 | 12.82141 | 4211 ft | 264 kts | 88° |
| 2026-04-30 14:44 | 55.70373 | 12.85309 | 4928 ft | 274 kts | 118° |
| 2026-04-30 14:44 | 55.68995 | 12.87643 | 5628 ft | 282 kts | 151° |
| 2026-04-30 14:45 | 55.67786 | 12.88513 | 6124 ft | 283 kts | 159° |
| 2026-04-30 14:45 | 55.65913 | 12.89663 | 6823 ft | 287 kts | 158° |
| 2026-04-30 14:45 | 55.64018 | 12.90833 | 7488 ft | 290 kts | 158° |
| 2026-04-30 14:45 | 55.62069 | 12.91868 | 8203 ft | 296 kts | 171° |
| 2026-04-30 14:46 | 55.60021 | 12.91490 | 8922 ft | 302 kts | 200° |
| 2026-04-30 14:46 | 55.58244 | 12.89521 | 9655 ft | 304 kts | 224° |
| 2026-04-30 14:46 | 55.56755 | 12.86821 | 10375 ft | 309 kts | 227° |
| 2026-04-30 14:46 | 55.55258 | 12.84002 | 10819 ft | 324 kts | 227° |
| 2026-04-30 14:47 | 55.53650 | 12.81013 | 10993 ft | 348 kts | 227° |
| 2026-04-30 14:47 | 55.52104 | 12.77586 | 11299 ft | 362 kts | 244° |
| 2026-04-30 14:47 | 55.51351 | 12.73418 | 11867 ft | 363 kts | 266° |
| 2026-04-30 14:47 | 55.51156 | 12.68961 | 12560 ft | 366 kts | 270° |
| 2026-04-30 14:48 | 55.51017 | 12.64447 | 13211 ft | 372 kts | 270° |
| 2026-04-30 14:48 | 55.50879 | 12.59844 | 13882 ft | 378 kts | 270° |
| 2026-04-30 14:48 | 55.50727 | 12.55168 | 14537 ft | 384 kts | 270° |
| 2026-04-30 14:48 | 55.50561 | 12.50459 | 15239 ft | 386 kts | 269° |
| 2026-04-30 14:49 | 55.50383 | 12.45709 | 15994 ft | 388 kts | 269° |
| 2026-04-30 14:49 | 55.50199 | 12.40942 | 16714 ft | 391 kts | 269° |
| 2026-04-30 14:49 | 55.50010 | 12.36124 | 17425 ft | 395 kts | 270° |
| 2026-04-30 14:49 | 55.49818 | 12.31274 | 18096 ft | 398 kts | 269° |
| 2026-04-30 14:50 | 55.48587 | 12.21730 | 19377 ft | 412 kts | 240° |
| 2026-04-30 14:50 | 55.46929 | 12.17596 | 20045 ft | 414 kts | 234° |
| 2026-04-30 14:51 | 55.43380 | 12.09497 | 21235 ft | 421 kts | 234° |
| 2026-04-30 14:51 | 55.41587 | 12.05413 | 21845 ft | 423 kts | 234° |
| 2026-04-30 14:51 | 55.37990 | 11.97125 | 23059 ft | 429 kts | 235° |
| 2026-04-30 14:52 | 55.36183 | 11.92934 | 23644 ft | 432 kts | 235° |
| 2026-04-30 14:52 | 55.32533 | 11.84468 | 24675 ft | 437 kts | 235° |
| 2026-04-30 14:52 | 55.30690 | 11.80203 | 25173 ft | 439 kts | 235° |
| 2026-04-30 14:53 | 55.26976 | 11.71632 | 26160 ft | 444 kts | 235° |
| 2026-04-30 14:53 | 55.25101 | 11.67304 | 26630 ft | 446 kts | 236° |
| 2026-04-30 14:54 | 55.21645 | 11.58281 | 27614 ft | 447 kts | 240° |
| 2026-04-30 14:54 | 55.18307 | 11.49003 | 28466 ft | 453 kts | 240° |
| 2026-04-30 14:55 | 55.14893 | 11.39654 | 29315 ft | 458 kts | 239° |
| 2026-04-30 14:55 | 55.13154 | 11.34955 | 29739 ft | 461 kts | 239° |
| 2026-04-30 14:55 | 55.09638 | 11.25527 | 30529 ft | 465 kts | 239° |
| 2026-04-30 14:56 | 55.06082 | 11.16035 | 31185 ft | 469 kts | 239° |
| 2026-04-30 14:56 | 55.02514 | 11.06544 | 31933 ft | 469 kts | 239° |
| 2026-04-30 14:57 | 55.00728 | 11.01803 | 32353 ft | 468 kts | 239° |
| 2026-04-30 14:57 | 54.97153 | 10.92336 | 33241 ft | 464 kts | 239° |
| 2026-04-30 14:58 | 54.93986 | 10.82686 | 34106 ft | 455 kts | 256° |
| 2026-04-30 14:58 | 54.93204 | 10.77401 | 34468 ft | 453 kts | 259° |
| 2026-04-30 14:59 | 54.91716 | 10.66763 | 35100 ft | 452 kts | 258° |
| 2026-04-30 15:00 | 54.89377 | 10.50936 | 36037 ft | 450 kts | 258° |
| 2026-04-30 15:00 | 54.87772 | 10.40440 | 36633 ft | 449 kts | 257° |
| 2026-04-30 15:01 | 54.86161 | 10.29984 | 37204 ft | 448 kts | 257° |
| 2026-04-30 15:01 | 54.85352 | 10.24749 | 37481 ft | 447 kts | 257° |
| 2026-04-30 15:01 | 54.83746 | 10.14394 | 37995 ft | 446 kts | 257° |
| 2026-04-30 15:02 | 54.82935 | 10.09182 | 38166 ft | 448 kts | 257° |
| 2026-04-30 15:02 | 54.82118 | 10.03956 | 38385 ft | 448 kts | 257° |
| 2026-04-30 15:03 | 54.78459 | 9.89023 | 38474 ft | 452 kts | 239° |
| 2026-04-30 15:03 | 54.75056 | 9.79876 | 38460 ft | 451 kts | 239° |
| 2026-04-30 15:04 | 54.66659 | 9.57170 | 38458 ft | 446 kts | 239° |
| 2026-04-30 15:06 | 54.58364 | 9.34640 | 38471 ft | 447 kts | 239° |
| 2026-04-30 15:07 | 54.51616 | 9.16533 | 38478 ft | 451 kts | 239° |
| 2026-04-30 15:08 | 54.44794 | 8.98331 | 38476 ft | 453 kts | 239° |
| 2026-04-30 15:09 | 54.36209 | 8.75613 | 38482 ft | 453 kts | 238° |
| 2026-04-30 15:10 | 54.29346 | 8.57593 | 38477 ft | 452 kts | 238° |
| 2026-04-30 15:11 | 54.17908 | 8.32134 | 38473 ft | 452 kts | 223° |
| 2026-04-30 15:13 | 54.06468 | 8.13858 | 38466 ft | 452 kts | 224° |
| 2026-04-30 15:14 | 53.90442 | 7.88076 | 38453 ft | 455 kts | 223° |
| 2026-04-30 15:17 | 53.69538 | 7.55100 | 38455 ft | 457 kts | 223° |
| 2026-04-30 15:18 | 53.57809 | 7.36776 | 36995 ft | 464 kts | 223° |
| 2026-04-30 15:19 | 53.50736 | 7.25797 | 35138 ft | 456 kts | 223° |